Weather observations for the past three days for
Calhoun Tom B. David Field Airport
Imperial (Metric)
Date Time (edt) Wind (mph) Vis. (mi.) Weather Sky Cond. Temperature (ºF) Relative Humidity Wind Chill (°F) Heat Index (°F) Pressure Precipitation (in)
Air Dwpt 6 hour altimeter (in) sea level (mb) 1 hr 3 hr 6 hr
Max. Min.
31 13:33 NE 6 10.00 Fair CLR 89.6 71.6 55% 96 30.15 0.0
31 13:15 NW 6 10.00 Fair CLR 91.4 71.6 52% 99 30.15 0.0
31 12:55 Calm 10.00 Fair CLR 87.8 71.6 59% 94 30.16 0.0
31 12:36 Calm 10.00 Partly Cloudy SCT050 SCT065 87.8 71.6 59% 94 30.16 0.0
31 12:15 Calm 10.00 A Few Clouds FEW055 86 71.6 62% 92 30.17 0.0
31 11:56 Calm 10.00 Fair CLR 86 71.6 62% 92 30.18 0.0
31 11:36 NW 5 10.00 Fair CLR 86 73.4 66% 93 30.18 0.0
31 11:15 Calm 10.00 Fair CLR 84.2 73.4 70% 91 30.18 0.0
31 10:56 Calm 10.00 Fair CLR 84.2 71.6 66% 90 30.18 0.0
31 10:37 Calm 10.00 Fair CLR 82.4 71.6 70% 87 30.18 0.0
31 10:16 Calm 10.00 Fair CLR 82.4 71.6 70% 87 30.17 0.0
31 09:55 Calm 10.00 Fair CLR 80.6 71.6 74% 85 30.17 0.0
31 09:35 Calm 10.00 Fair CLR 80.6 71.6 74% 85 30.18 0.0
31 09:15 Calm 10.00 Fair CLR 77 69.8 79% 79 30.18 0.0
31 08:55 Calm 10.00 Fair CLR 77 69.8 79% 79 30.17 0.0
31 08:35 Calm 10.00 Fair CLR 75.2 69.8 83% 75 30.17 0.0
31 08:15 Calm 10.00 Fair CLR 73.4 68 83% 30.16 0.0
31 07:35 Calm 10.00 Fair CLR 71.6 68 88% 30.15 0.0
31 07:16 Calm 10.00 Fair CLR 71.6 68 88% 30.15 0.0
31 06:55 Calm 10.00 A Few Clouds FEW048 71.6 68 88% 30.14 0.0
31 06:35 Calm 9.00 A Few Clouds FEW048 71.6 68 88% 30.13 0.0
31 06:15 Calm 10.00 Partly Cloudy SCT048 71.6 68 88% 30.13 0.0
31 05:55 Calm 10.00 Mostly Cloudy BKN048 71.6 68 88% 30.13 0.0
31 05:35 Calm 10.00 Overcast OVC048 71.6 68 88% 30.13 0.0
31 05:15 Calm 10.00 Partly Cloudy SCT048 71.6 68 88% 30.13 0.0
31 04:55 Calm 10.00 Fair CLR 73.4 68 83% 30.12 0.0
31 04:35 Calm 10.00 Fair CLR 71.6 68 88% 30.12 0.0
31 04:15 Calm 10.00 Fair CLR 71.6 68 88% 30.11 0.0
31 03:55 Calm 10.00 Fair CLR 73.4 68 83% 30.11 0.0
31 03:35 Calm 10.00 Fair CLR 73.4 69.8 89% 30.11 0.0
31 03:15 Calm 10.00 Fair CLR 75.2 69.8 83% 75 30.11 0.0
31 02:55 Calm 10.00 Fair CLR 73.4 69.8 89% 30.12 0.0
31 02:35 Calm 10.00 Fair CLR 73.4 68 83% 30.11 0.0
31 02:15 Calm 10.00 Fair CLR 73.4 69.8 89% 30.11 0.0
31 01:55 Calm 10.00 Fair CLR 75.2 69.8 84.2 74.1 83% 75 30.11 0.0
31 01:35 Calm 10.00 A Few Clouds FEW050 75.2 69.8 83% 75 30.11 0.0
31 01:15 Calm 10.00 Partly Cloudy SCT050 75.2 69.8 83% 75 30.11 0.0
31 00:55 Calm 10.00 Fair CLR 75.2 69.8 83% 75 30.11 0.0
31 00:35 Calm 10.00 Fair CLR 75.2 69.8 83% 75 30.12 0.0
31 00:15 Calm 10.00 Fair CLR 75.2 69.8 83% 75 30.12 0.0
30 23:55 Calm 10.00 Fair CLR 75.2 69.8 83% 75 30.12 0.0
30 23:35 Calm 10.00 Fair CLR 75.2 69.8 83% 75 30.12 0.0
30 23:15 Calm 10.00 Fair CLR 77 69.8 79% 79 30.12 0.0
30 22:55 Calm 10.00 Fair CLR 77 69.8 79% 79 30.12 0.0
30 22:35 Calm 10.00 Fair CLR 77 69.8 79% 79 30.12 0.0
30 22:15 Calm 10.00 Fair CLR 77 69.8 79% 79 30.12 0.0
30 21:55 Calm 10.00 Fair CLR 77 71.6 83% 78 30.11 0.0
30 21:35 Calm 10.00 Fair CLR 77 71.6 83% 78 30.1 0.0
30 21:15 Calm 10.00 Fair CLR 78.8 71.6 79% 82 30.1 0.0
30 20:55 Calm 10.00 Fair CLR 80.6 71.6 74% 85 30.09 0.0
30 20:35 Calm 10.00 Fair CLR 80.6 71.6 74% 85 30.09 0.0
30 20:15 Calm 10.00 Fair CLR 82.4 71.6 70% 87 30.08 0.0
30 19:55 Calm 10.00 Fair CLR 84.2 71.6 92.8 83.1 66% 90 30.08 0.0
30 19:35 Calm 10.00 Fair CLR 84.2 71.6 66% 90 30.08 0.0
30 19:15 S 3 10.00 Fair CLR 86 69.8 59% 91 30.08 0.0
30 18:55 S 7 10.00 Mostly Cloudy SCT050 BKN065 BKN090 87.8 69.8 55% 93 30.08 0.0
30 18:35 Vrbl 3 10.00 Partly Cloudy SCT050 SCT070 87.8 71.6 59% 94 30.08 0.0
30 18:15 E 5 10.00 Fair CLR 87.8 69.8 55% 93 30.08 0.0
30 17:55 E 6 10.00 A Few Clouds FEW060 FEW100 91.4 69.8 49% 97 30.08 0.0
30 17:35 Vrbl 5 10.00 Partly Cloudy FEW060 SCT100 91.4 69.8 49% 97 30.08 0.0
30 17:15 Vrbl 6 10.00 Partly Cloudy SCT110 93.2 69.8 47% 99 30.08 0.0
30 16:55 Vrbl 3 10.00 Fair CLR 91.4 69.8 49% 97 30.08 0.0
30 16:35 Vrbl 6 10.00 Partly Cloudy FEW050 FEW060 SCT110 93.2 69.8 47% 99 30.09 0.0
30 16:15 E 5 10.00 Partly Cloudy SCT050 91.4 69.8 49% 97 30.09 0.0
30 15:55 Calm 10.00 Partly Cloudy SCT049 91.4 69.8 49% 97 30.1 0.0
30 15:35 E 6 10.00 Mostly Cloudy BKN049 BKN065 BKN075 89.6 69.8 52% 95 30.11 0.0
30 15:15 Calm 10.00 Partly Cloudy FEW055 SCT070 91.4 69.8 49% 97 30.11 0.0
30 14:55 Calm 10.00 Mostly Cloudy SCT047 SCT055 BKN070 89.6 69.8 52% 95 30.12 0.0
30 14:35 Vrbl 6 10.00 Mostly Cloudy SCT045 BKN070 89.6 71.6 55% 96 30.13 0.0
30 14:15 Calm 10.00 Partly Cloudy SCT050 SCT060 SCT080 89.6 71.6 55% 96 30.14 0.0
30 13:55 NE 6 10.00 Mostly Cloudy SCT043 BKN050 BKN060 89.6 71.6 90.1 72.1 55% 96 30.15 0.0
30 13:35 Vrbl 5 10.00 Mostly Cloudy SCT040 SCT050 BKN065 89.6 71.6 55% 96 30.16 0.0
30 13:15 Vrbl 6 10.00 Partly Cloudy FEW038 SCT050 SCT060 87.8 71.6 59% 94 30.17 0.0
30 12:55 SE 8 G 16 10.00 A Few Clouds FEW036 FEW055 87.8 71.6 59% 94 30.17 0.0
30 12:35 Vrbl 7 10.00 A Few Clouds FEW050 86 71.6 62% 92 30.18 0.0
30 12:15 S 3 10.00 A Few Clouds FEW033 FEW042 86 71.6 62% 92 30.19 0.0
30 11:55 SE 5 10.00 Partly Cloudy FEW033 SCT041 84.2 71.6 66% 90 30.19 0.0
30 11:35 Vrbl 5 10.00 A Few Clouds FEW029 FEW036 FEW042 86 71.6 62% 92 30.2 0.0
30 11:15 Vrbl 6 10.00 A Few Clouds FEW024 FEW035 86 71.6 62% 92 30.19 0.0
30 10:55 SE 5 10.00 Partly Cloudy SCT021 SCT027 82.4 71.6 70% 87 30.2 0.0
30 10:35 SE 5 10.00 Mostly Cloudy BKN019 BKN028 82.4 73.4 74% 88 30.2 0.0
30 10:15 Calm 10.00 Partly Cloudy SCT017 82.4 73.4 74% 88 30.2 0.0
30 09:55 SE 5 10.00 Partly Cloudy SCT027 SCT045 80.6 71.6 74% 85 30.2 0.0
30 09:35 SE 5 10.00 Mostly Cloudy BKN029 78.8 71.6 79% 82 30.2 0.0
30 09:15 Vrbl 6 10.00 A Few Clouds FEW031 78.8 71.6 79% 82 30.2 0.0
30 08:55 Vrbl 5 10.00 Fair CLR 77 71.6 83% 78 30.19 0.0
30 08:35 Calm 10.00 Fair CLR 75.2 69.8 83% 75 30.19 0.0
30 08:15 Calm 9.00 Fair CLR 73.4 69.8 89% 30.18 0.0
30 07:55 Calm 6.00 Fair with Haze CLR 71.6 68 75.2 71.8 88% 30.17 0.0
30 07:35 Calm 6.00 Fair with Haze CLR 71.6 68 88% 30.17 0.0
30 07:15 Calm 8.00 Fair CLR 71.6 68 88% 30.16 0.0
30 06:55 Calm 6.00 Fair with Haze CLR 71.6 68 88% 30.16 0.0
30 06:35 Calm 6.00 Fair with Haze CLR 71.6 68 88% 30.15 0.0
30 06:15 Calm 6.00 Fair with Haze CLR 71.6 68 88% 30.15 0.0
30 05:55 Calm 8.00 Fair CLR 71.6 68 88% 30.15 0.0
30 05:35 Calm 7.00 Fair CLR 73.4 68 83% 30.14 0.0
30 05:15 Calm 5.00 Fair with Haze CLR 73.4 68 83% 30.14 0.0
30 04:55 Calm 10.00 Partly Cloudy SCT037 SCT060 73.4 68 83% 30.14 0.0
30 04:35 Calm 10.00 Mostly Cloudy SCT039 BKN060 73.4 68 83% 30.14 0.0
30 04:15 Calm 9.00 A Few Clouds FEW041 FEW060 73.4 69.8 89% 30.14 0.0
30 03:55 Calm 8.00 A Few Clouds FEW060 73.4 68 83% 30.14 0.0
30 03:35 Calm 9.00 Mostly Cloudy BKN050 73.4 68 83% 30.14 0.0
30 03:15 Calm 9.00 Fair CLR 73.4 69.8 89% 30.13 0.0
30 02:55 Calm 10.00 Fair CLR 73.4 68 83% 30.13 0.0
30 02:35 Calm 10.00 Fair CLR 73.4 69.8 89% 30.14 0.0
30 02:15 Calm 10.00 Fair CLR 73.4 69.8 89% 30.14 0.0
30 01:55 Calm 10.00 A Few Clouds FEW050 FEW065 75.2 69.8 81.7 74.5 83% 75 30.14 0.0
30 01:35 Calm 10.00 Mostly Cloudy BKN050 BKN065 75.2 69.8 83% 75 30.15 0.0
30 01:15 Calm 10.00 Mostly Cloudy BKN048 BKN060 BKN070 75.2 69.8 83% 75 30.15 0.0
30 00:55 Calm 10.00 Mostly Cloudy BKN046 BKN055 75.2 69.8 83% 75 30.15 0.0
30 00:35 Calm 10.00 Mostly Cloudy BKN046 75.2 69.8 83% 75 30.16 0.0
30 00:15 Calm 10.00 Fair CLR 75.2 69.8 83% 75 30.15 0.0
29 23:55 Calm 10.00 Fair CLR 75.2 69.8 83% 75 30.15 0.0
29 23:35 Calm 10.00 Fair CLR 75.2 69.8 83% 75 30.15 0.0
29 23:15 Calm 10.00 Fair CLR 77 69.8 79% 79 30.15 0.0
29 22:55 Calm 10.00 Fair CLR 77 69.8 79% 79 30.15 0.0
29 22:35 Calm 10.00 Fair CLR 75.2 69.8 83% 75 30.14 0.0
29 22:15 Calm 10.00 Fair CLR 77 69.8 79% 79 30.13 0.0
29 21:55 Calm 10.00 Fair CLR 77 69.8 79% 79 30.12 0.0
29 21:35 Calm 10.00 Fair CLR 77 69.8 79% 79 30.11 0.0
29 21:15 Calm 10.00 Fair CLR 78.8 69.8 74% 81 30.1 0.0
29 20:55 Calm 10.00 Fair CLR 78.8 69.8 74% 81 30.09 0.0
29 20:35 E 5 10.00 Fair CLR 78.8 69.8 74% 81 30.09 0.0
29 20:15 SE 5 10.00 A Few Clouds FEW120 80.6 69.8 70% 84 30.09 0.0
29 19:55 SE 5 10.00 Partly Cloudy SCT120 82.4 69.8 92.8 81.7 66% 86 30.09 0.0
29 19:35 SE 3 10.00 A Few Clouds FEW120 82.4 69.8 66% 86 30.09 0.0
29 19:15 E 3 10.00 Partly Cloudy SCT110 82.4 69.8 66% 86 30.09 0.0
29 18:55 Vrbl 5 10.00 Mostly Cloudy SCT048 SCT060 BKN110 84.2 71.6 66% 90 30.09 0.0
29 18:35 E 7 10.00 Mostly Cloudy BKN050 BKN055 86 69.8 59% 91 30.08 0.0
29 18:15 NE 10 10.00 Thunderstorm in Vicinity BKN050 87.8 69.8 55% 93 30.08 0.0
29 17:55 E 10 10.00 Thunderstorm in Vicinity FEW120 87.8 69.8 55% 93 30.08 0.0
29 17:35 Calm 10.00 Thunderstorm in Vicinity BKN050 BKN110 89.6 71.6 55% 96 30.07 0.0
29 17:15 E 8 10.00 Mostly Cloudy BKN050 91.4 71.6 52% 99 30.07 0.0
29 16:55 W 6 10.00 Mostly Cloudy BKN050 91.4 69.8 49% 97 30.07 0.0
29 16:35 SW 7 10.00 A Few Clouds FEW055 91.4 69.8 49% 97 30.07 0.0
29 16:15 Vrbl 6 10.00 Fair CLR 91.4 69.8 49% 97 30.08 0.0
29 15:55 S 7 10.00 Fair CLR 91.4 71.6 52% 99 30.09 0.0
29 15:35 S 12 G 16 10.00 A Few Clouds FEW040 FEW120 89.6 71.6 55% 96 30.1 0.0
29 15:15 SW 9 10.00 Partly Cloudy FEW040 SCT120 89.6 71.6 55% 96 30.1 0.0
29 14:55 SW 12 10.00 A Few Clouds FEW110 89.6 71.6 55% 96 30.12 0.0
29 14:35 SW 9 10.00 Partly Cloudy FEW034 FEW043 SCT070 89.6 73.4 59% 98 30.12 0.0
29 14:15 S 9 10.00 Mostly Cloudy SCT033 SCT043 BKN065 87.8 73.4 62% 96 30.13 0.0
29 13:55 SW 10 10.00 Mostly Cloudy BKN033 BKN055 BKN100 87.8 73.4 88 71.4 62% 96 30.13 0.0
29 13:35 S 10 10.00 Mostly Cloudy SCT032 SCT049 BKN080 87.8 73.4 62% 96 30.14 0.0
29 13:15 S 9 10.00 Mostly Cloudy BKN032 BKN047 BKN080 86 71.6 62% 92 30.15 0.0
29 12:55 Vrbl 7 10.00 Mostly Cloudy SCT030 BKN037 BKN047 86 71.6 62% 92 30.15 0.0
29 12:35 Vrbl 5 10.00 Mostly Cloudy SCT028 BKN037 BKN050 86 73.4 66% 93 30.15 0.0
29 12:15 Vrbl 5 10.00 Mostly Cloudy BKN028 BKN035 86 73.4 66% 93 30.15 0.0
29 11:55 S 5 10.00 Mostly Cloudy BKN024 BKN031 84.2 73.4 70% 91 30.15 0.0
29 11:35 Calm 10.00 Mostly Cloudy BKN024 82.4 71.6 70% 87 30.15 0.0
29 11:15 S 5 10.00 Partly Cloudy SCT022 84.2 71.6 66% 90 30.15 0.0
29 10:55 Calm 10.00 Mostly Cloudy BKN022 82.4 71.6 70% 87 30.15 0.0
29 10:35 Vrbl 5 10.00 Mostly Cloudy BKN020 80.6 71.6 74% 85 30.15 0.0
29 10:15 SE 5 10.00 Mostly Cloudy BKN022 80.6 69.8 70% 84 30.15 0.0
29 09:55 Vrbl 6 10.00 Fair CLR 78.8 69.8 74% 81 30.14 0.0
29 09:35 S 7 10.00 A Few Clouds FEW021 78.8 69.8 74% 81 30.14 0.0
29 09:15 SE 3 10.00 Mostly Cloudy BKN021 77 68 74% 79 30.14 0.0
29 08:55 Calm 10.00 Mostly Cloudy BKN021 77 68 74% 79 30.14 0.0
29 08:35 Calm 10.00 Fair CLR 75.2 68 78% 76 30.14 0.0
29 08:15 Calm 10.00 Fair CLR 71.6 68 88% 30.13 0.0
29 07:55 Calm 10.00 Fair CLR 71.6 66.2 77.4 70.2 83% 30.13 0.0
29 07:35 Calm 10.00 Fair CLR 71.6 66.2 83% 30.12 0.0
29 07:15 Calm 10.00 Fair CLR 69.8 66.2 88% 30.12 0.0
29 06:55 Calm 10.00 Fair CLR 71.6 66.2 83% 30.12 0.0
29 06:35 Calm 10.00 A Few Clouds FEW100 71.6 66.2 83% 30.11 0.0
29 06:15 Calm 10.00 A Few Clouds FEW100 71.6 66.2 83% 30.11 0.0
29 05:55 Calm 10.00 A Few Clouds FEW100 71.6 68 88% 30.1 0.0
29 05:35 Calm 10.00 Partly Cloudy SCT049 71.6 68 88% 30.1 0.0
29 05:15 Calm 10.00 A Few Clouds FEW049 71.6 68 88% 30.09 0.0
29 04:55 Calm 10.00 Fair CLR 73.4 68 83% 30.08 0.0
29 04:35 Calm 10.00 Fair CLR 73.4 68 83% 30.08 0.0
29 04:15 Calm 10.00 Fair CLR 75.2 68 78% 76 30.08 0.0
29 03:55 Calm 10.00 A Few Clouds FEW055 FEW065 75.2 68 78% 76 30.07 0.0
29 03:35 Calm 10.00 A Few Clouds FEW055 75.2 68 78% 76 30.08 0.0
29 03:15 Calm 10.00 Fair CLR 75.2 69.8 83% 75 30.07 0.0
29 02:55 SE 5 10.00 Fair CLR 77 69.8 79% 79 30.07 0.0
29 02:35 E 3 10.00 Partly Cloudy SCT050 SCT095 77 69.8 79% 79 30.07 0.0
29 02:15 Calm 10.00 Partly Cloudy SCT050 77 69.8 79% 79 30.08 0.0
29 01:55 Calm 10.00 Fair CLR 77 69.8 87.3 75.7 79% 79 30.08 0.0
29 01:35 Calm 10.00 Partly Cloudy FEW042 SCT050 77 69.8 79% 79 30.09 0.0
29 01:15 Calm 10.00 Partly Cloudy FEW042 SCT050 77 69.8 79% 79 30.09 0.0
29 00:55 Calm 10.00 Fair CLR 77 69.8 79% 79 30.08 0.0
29 00:35 Calm 10.00 Fair CLR 77 69.8 79% 79 30.08 0.0
29 00:15 Calm 10.00 A Few Clouds FEW050 78.8 69.8 74% 81 30.07 0.0
28 23:55 SE 5 10.00 A Few Clouds FEW050 77 69.8 79% 79 30.06 0.0
28 23:35 Calm 10.00 Fair CLR 78.8 69.8 74% 81 30.05 0.0
28 23:15 E 6 10.00 A Few Clouds FEW060 78.8 69.8 74% 81 30.05 0.0
28 22:55 Calm 10.00 Partly Cloudy SCT060 78.8 69.8 74% 81 30.04 0.0
28 22:35 Calm 10.00 Mostly Cloudy BKN060 78.8 69.8 74% 81 30.04 0.0
28 22:15 Calm 10.00 Partly Cloudy SCT060 78.8 69.8 74% 81 30.03 0.0
28 21:55 Calm 10.00 Partly Cloudy SCT060 78.8 69.8 74% 81 30.03 0.0
28 21:35 Vrbl 5 10.00 Overcast OVC060 78.8 69.8 74% 81 30.02 0.0
28 21:15 Calm 10.00 Partly Cloudy SCT060 80.6 69.8 70% 84 30.01 0.0
28 20:56 Calm 10.00 Fair CLR 80.6 69.8 70% 84 30 0.0
28 20:35 Calm 10.00 Fair CLR 82.4 69.8 66% 86 29.99 0.0
28 20:15 Calm 10.00 Fair CLR 84.2 69.8 62% 88 29.99 0.0
28 19:56 NW 5 10.00 Fair CLR 86 69.8 59% 91 29.99 0.0
28 19:35 N 3 10.00 Fair CLR 89.6 68 49% 93 29.99 0.0
28 19:15 Calm 10.00 Fair CLR 91.4 66.2 44% 94 29.99 0.0
28 18:55 NW 3 10.00 Fair CLR 91.4 66.2 44% 94 29.99 0.0
28 18:35 NW 6 10.00 Fair CLR 93.2 66.2 41% 96 29.98 0.0
28 18:15 N 6 10.00 Fair CLR 93.2 66.2 41% 96 29.98 0.0
28 17:55 N 5 10.00 A Few Clouds FEW060 93.2 66.2 41% 96 29.98 0.0
28 17:35 NW 6 10.00 Partly Cloudy SCT060 93.2 66.2 41% 96 29.98 0.0
28 17:15 N 6 10.00 Fair CLR 93.2 68 44% 98 29.98 0.0
28 16:55 N 7 10.00 A Few Clouds FEW060 93.2 68 44% 98 29.98 0.0
28 16:35 Vrbl 5 10.00 A Few Clouds FEW060 93.2 66.2 41% 96 29.98 0.0
28 16:15 NW 8 10.00 A Few Clouds FEW050 93.2 68 44% 98 29.98 0.0
28 15:55 Vrbl 7 10.00 A Few Clouds FEW050 93.2 68 44% 98 29.99 0.0
28 15:35 N 8 10.00 Partly Cloudy SCT050 91.4 68 46% 96 30 0.0
28 15:15 Vrbl 5 10.00 A Few Clouds FEW049 FEW065 FEW080 91.4 68 46% 96 30.01 0.0
28 14:55 NW 6 10.00 Partly Cloudy FEW049 SCT065 SCT080 91.4 69.8 49% 97 30.02 0.0
28 14:35 Vrbl 5 10.00 A Few Clouds FEW048 FEW060 91.4 69.8 49% 97 30.02 0.0
28 14:17 Vrbl 6 10.00 Partly Cloudy SCT046 SCT060 SCT090 89.6 68 49% 93 30.03 0.0
28 13:54 NW 8 10.00 Partly Cloudy FEW046 SCT055 SCT090 89.6 69.8 91.4 71.8 52% 95 30.03 0.0
Date Time (edt) Wind (mph) Vis. (mi.) Weather Sky Cond. Air Dwpt Max. Min. Relative Humidity Wind Chill (°F) Heat Index (°F) altimeter (in) sea level (mb) 1 hr 3 hr 6 hr
6 hour
Temperature (ºF) Pressure Precipitation (in)